createdAt,value
2018-09-22T00:00:35.329Z,13.60
2018-09-22T00:01:35.311Z,13.61
2018-09-22T00:02:35.284Z,13.65
2018-09-22T00:03:35.265Z,13.61
2018-09-22T00:04:35.243Z,13.58
2018-09-22T00:05:35.225Z,13.61
2018-09-22T00:06:35.210Z,13.63
2018-09-22T00:07:35.179Z,13.51
2018-09-22T00:08:35.173Z,13.58
2018-09-22T00:09:35.143Z,13.55
2018-09-22T00:10:35.123Z,13.53
2018-09-22T00:11:35.113Z,13.55
2018-09-22T00:12:35.084Z,13.51
2018-09-22T00:13:35.060Z,13.51
2018-09-22T00:14:35.038Z,13.47
2018-09-22T00:15:35.021Z,13.54
2018-09-22T00:16:35.000Z,13.51
2018-09-22T00:17:34.982Z,13.54
2018-09-22T00:18:34.961Z,13.51
2018-09-22T00:19:34.947Z,13.40
2018-09-22T00:20:34.919Z,13.39
2018-09-22T00:21:34.898Z,13.17
2018-09-22T00:22:34.877Z,13.08
2018-09-22T00:23:34.858Z,12.88
2018-09-22T00:24:34.837Z,12.76
2018-09-22T00:25:34.816Z,12.50
2018-09-22T00:26:34.795Z,12.41
2018-09-22T00:27:34.776Z,12.36
2018-09-22T00:28:34.753Z,12.30
2018-09-22T00:29:34.734Z,12.26
2018-09-22T00:30:34.723Z,12.08
2018-09-22T00:31:34.693Z,12.08
2018-09-22T00:32:34.674Z,12.08
2018-09-22T00:33:34.654Z,12.03
2018-09-22T00:34:34.631Z,12.10
2018-09-22T00:35:34.609Z,12.11
2018-09-22T00:36:34.591Z,12.08
2018-09-22T00:37:34.560Z,11.97
2018-09-22T00:38:34.549Z,11.96
2018-09-22T00:39:34.530Z,11.95
2018-09-22T00:40:34.506Z,11.89
2018-09-22T00:41:34.485Z,11.87
2018-09-22T00:42:34.465Z,11.91
2018-09-22T00:43:34.446Z,11.88
2018-09-22T00:44:34.424Z,11.87
2018-09-22T00:45:34.404Z,11.88
2018-09-22T00:46:34.383Z,11.89
2018-09-22T00:47:34.372Z,11.89
2018-09-22T00:48:34.341Z,11.91
2018-09-22T00:49:34.320Z,11.93
2018-09-22T00:50:34.297Z,11.93
2018-09-22T00:51:34.278Z,11.93
2018-09-22T00:52:34.256Z,11.91
2018-09-22T00:53:34.236Z,11.91
2018-09-22T00:54:34.215Z,11.80
2018-09-22T00:55:34.200Z,11.84
2018-09-22T00:56:34.175Z,11.89
2018-09-22T00:57:34.151Z,11.87
2018-09-22T00:58:34.139Z,11.79
2018-09-22T00:59:34.111Z,11.77
2018-09-22T01:00:34.088Z,11.87
2018-09-22T01:01:34.067Z,11.87
2018-09-22T01:02:34.051Z,11.80
2018-09-22T01:03:34.027Z,11.84
2018-09-22T01:04:34.005Z,11.88
2018-09-22T01:05:33.985Z,11.88
2018-09-22T01:06:33.963Z,11.88
2018-09-22T01:07:33.945Z,11.76
2018-09-22T01:08:33.924Z,11.87
2018-09-22T01:09:33.905Z,11.89
2018-09-22T01:10:33.880Z,11.88
2018-09-22T01:11:33.861Z,11.85
2018-09-22T01:12:33.840Z,11.93
2018-09-22T01:13:33.816Z,11.91
2018-09-22T01:14:33.800Z,11.88
2018-09-22T01:15:33.808Z,11.91
2018-09-22T01:16:33.757Z,11.99
2018-09-22T01:17:33.733Z,12.00
2018-09-22T01:18:33.712Z,11.85
2018-09-22T01:19:33.693Z,11.99
2018-09-22T01:20:33.671Z,11.89
2018-09-22T01:21:33.650Z,11.89
2018-09-22T01:22:33.630Z,11.89
2018-09-22T01:23:33.614Z,11.87
2018-09-22T01:24:33.587Z,11.87
2018-09-22T01:25:33.570Z,11.93
2018-09-22T01:26:33.546Z,11.95
2018-09-22T01:27:33.539Z,12.00
2018-09-22T01:28:33.504Z,11.91
2018-09-22T01:29:33.485Z,11.88
2018-09-22T01:30:33.463Z,12.03
2018-09-22T01:31:33.444Z,11.95
2018-09-22T01:32:33.420Z,11.99
2018-09-22T01:33:33.406Z,11.88
2018-09-22T01:34:33.384Z,11.95
2018-09-22T01:35:33.358Z,11.93
2018-09-22T01:36:33.339Z,11.99
2018-09-22T01:37:33.319Z,11.95
2018-09-22T01:38:33.299Z,11.85
2018-09-22T01:39:33.275Z,11.89
2018-09-22T01:40:33.256Z,11.93
2018-09-22T01:41:33.232Z,11.93
2018-09-22T01:42:33.212Z,11.96
2018-09-22T01:43:33.191Z,11.93
2018-09-22T01:44:33.170Z,11.89
2018-09-22T01:45:33.151Z,11.74
2018-09-22T01:46:33.129Z,11.77
2018-09-22T01:47:33.107Z,11.80
2018-09-22T01:48:33.089Z,11.71
2018-09-22T01:49:33.065Z,11.71
2018-09-22T01:50:33.046Z,11.69
2018-09-22T01:51:33.027Z,11.70
2018-09-22T01:52:33.041Z,11.66
2018-09-22T01:53:32.983Z,11.66
2018-09-22T01:54:32.962Z,11.56
2018-09-22T01:55:32.941Z,11.58
2018-09-22T01:56:32.918Z,11.54
2018-09-22T01:57:32.903Z,11.52
2018-09-22T01:58:32.877Z,11.54
2018-09-22T01:59:32.860Z,11.49
2018-09-22T02:00:32.834Z,11.40
2018-09-22T02:01:32.814Z,11.37
2018-09-22T02:02:32.794Z,11.40
2018-09-22T02:03:32.770Z,11.48
2018-09-22T02:04:32.750Z,11.36
2018-09-22T02:05:32.729Z,11.38
2018-09-22T02:06:32.709Z,11.27
2018-09-22T02:07:32.689Z,11.33
2018-09-22T02:08:32.664Z,11.37
2018-09-22T02:09:32.644Z,11.23
2018-09-22T02:10:32.671Z,11.33
2018-09-22T02:11:32.602Z,11.30
2018-09-22T02:12:32.581Z,11.22
2018-09-22T02:13:32.561Z,11.30
2018-09-22T02:14:32.540Z,11.27
2018-09-22T02:15:32.521Z,11.23
2018-09-22T02:16:32.496Z,11.27
2018-09-22T02:17:32.480Z,11.19
2018-09-22T02:18:32.453Z,11.15
2018-09-22T02:19:32.436Z,11.23
2018-09-22T02:20:32.414Z,11.18
2018-09-22T02:21:32.396Z,11.12
2018-09-22T02:22:32.368Z,11.13
2018-09-22T02:23:32.349Z,11.08
2018-09-22T02:24:32.332Z,11.05
2018-09-22T02:25:32.308Z,11.11
2018-09-22T02:26:32.289Z,11.13
2018-09-22T02:27:32.264Z,11.09
2018-09-22T02:28:32.243Z,11.16
2018-09-22T02:29:32.222Z,11.13
2018-09-22T02:30:32.202Z,11.11
2018-09-22T02:31:32.178Z,11.16
2018-09-22T02:32:32.158Z,11.13
2018-09-22T02:33:32.139Z,11.15
2018-09-22T02:34:32.113Z,11.15
2018-09-22T02:35:32.096Z,11.16
2018-09-22T02:36:32.077Z,11.12
2018-09-22T02:37:32.050Z,11.15
2018-09-22T02:38:32.032Z,11.09
2018-09-22T02:39:32.008Z,11.12
2018-09-22T02:40:31.985Z,11.13
2018-09-22T02:41:31.967Z,11.13
2018-09-22T02:42:31.944Z,11.11
2018-09-22T02:43:31.923Z,11.15
2018-09-22T02:44:31.906Z,11.12
2018-09-22T02:45:31.880Z,11.11
2018-09-22T02:46:31.863Z,11.12
2018-09-22T02:47:31.838Z,11.12
2018-09-22T02:48:31.814Z,11.08
2018-09-22T02:49:31.798Z,11.05
2018-09-22T02:50:31.777Z,11.04
2018-09-22T02:51:31.753Z,11.05
2018-09-22T02:52:31.732Z,11.01
2018-09-22T02:53:31.713Z,11.03
2018-09-22T02:54:31.690Z,11.08
2018-09-22T02:55:31.666Z,11.08
2018-09-22T02:56:31.645Z,11.05
2018-09-22T02:57:31.625Z,11.03
2018-09-22T02:58:31.607Z,11.04
2018-09-22T02:59:31.593Z,11.04
2018-09-22T03:00:31.566Z,11.03
2018-09-22T03:01:31.539Z,11.01
2018-09-22T03:02:31.517Z,11.03
2018-09-22T03:03:31.499Z,11.03
2018-09-22T03:04:31.485Z,11.04
2018-09-22T03:05:31.456Z,11.01
2018-09-22T03:06:31.497Z,11.01
2018-09-22T03:07:31.411Z,11.01
2018-09-22T03:08:31.390Z,10.94
2018-09-22T03:09:31.371Z,11.03
2018-09-22T03:10:31.347Z,11.01
2018-09-22T03:11:31.344Z,11.01
2018-09-22T03:12:31.301Z,11.08
2018-09-22T03:13:31.282Z,11.05
2018-09-22T03:14:31.264Z,10.97
2018-09-22T03:15:31.313Z,11.03
2018-09-22T03:16:31.217Z,11.01
2018-09-22T03:17:31.188Z,11.09
2018-09-22T03:18:31.176Z,11.00
2018-09-22T03:19:31.154Z,11.05
2018-09-22T03:20:31.136Z,11.01
2018-09-22T03:21:31.110Z,11.01
2018-09-22T03:22:31.090Z,10.98
2018-09-22T03:23:31.068Z,10.91
2018-09-22T03:24:31.046Z,10.95
2018-09-22T03:25:31.029Z,11.04
2018-09-22T03:26:31.009Z,11.00
2018-09-22T03:27:30.982Z,10.95
2018-09-22T03:28:30.967Z,10.95
2018-09-22T03:29:30.943Z,10.93
2018-09-22T03:30:30.923Z,10.87
2018-09-22T03:31:30.902Z,10.94
2018-09-22T03:32:30.874Z,10.94
2018-09-22T03:33:30.856Z,10.91
2018-09-22T03:34:30.834Z,10.93
2018-09-22T03:35:30.813Z,10.98
2018-09-22T03:36:30.791Z,10.97
2018-09-22T03:37:30.768Z,10.94
2018-09-22T03:38:30.749Z,10.97
2018-09-22T03:39:30.730Z,10.94
2018-09-22T03:40:30.706Z,10.95
2018-09-22T03:41:30.683Z,10.95
2018-09-22T03:42:30.663Z,10.91
2018-09-22T03:43:30.642Z,10.94
2018-09-22T03:44:30.618Z,11.01
2018-09-22T03:45:30.598Z,11.03
2018-09-22T03:46:30.576Z,11.01
2018-09-22T03:47:30.556Z,11.05
2018-09-22T03:48:30.532Z,11.03
2018-09-22T03:49:30.514Z,11.05
2018-09-22T03:50:30.493Z,11.09
2018-09-22T03:51:30.472Z,11.13
2018-09-22T03:52:30.447Z,11.13
2018-09-22T03:53:30.428Z,11.13
2018-09-22T03:54:30.405Z,11.05
2018-09-22T03:55:30.386Z,11.12
2018-09-22T03:56:30.361Z,11.13
2018-09-22T03:57:30.342Z,11.15
2018-09-22T03:58:30.324Z,11.09
2018-09-22T03:59:30.298Z,11.15
2018-09-22T04:00:30.276Z,11.25
2018-09-22T04:01:30.262Z,11.25
2018-09-22T04:02:30.237Z,11.19
2018-09-22T04:03:30.213Z,11.16
2018-09-22T04:04:30.193Z,11.16
2018-09-22T04:05:30.170Z,11.19
2018-09-22T04:06:30.152Z,11.22
2018-09-22T04:07:30.132Z,11.16
2018-09-22T04:08:30.111Z,11.20
2018-09-22T04:09:30.089Z,11.11
2018-09-22T04:10:30.064Z,11.22
2018-09-22T04:11:30.046Z,11.09
2018-09-22T04:12:30.023Z,11.19
2018-09-22T04:13:30.000Z,11.11
2018-09-22T04:14:29.979Z,11.15
2018-09-22T04:15:29.957Z,11.08
2018-09-22T04:16:29.938Z,11.13
2018-09-22T04:17:29.915Z,11.18
2018-09-22T04:18:29.893Z,11.15
2018-09-22T04:19:29.872Z,11.11
2018-09-22T04:20:29.849Z,11.13
2018-09-22T04:21:29.828Z,11.11
2018-09-22T04:22:29.811Z,11.13
2018-09-22T04:23:29.787Z,11.15
2018-09-22T04:24:29.764Z,11.12
2018-09-22T04:25:29.743Z,11.08
2018-09-22T04:26:29.721Z,11.03
2018-09-22T04:27:29.701Z,11.09
2018-09-22T04:28:29.680Z,11.09
2018-09-22T04:29:29.664Z,11.01
2018-09-22T04:30:29.636Z,11.08
2018-09-22T04:31:29.615Z,11.08
2018-09-22T04:32:29.593Z,11.04
2018-09-22T04:33:29.671Z,11.08
2018-09-22T04:34:29.554Z,11.09
2018-09-22T04:35:29.537Z,11.11
2018-09-22T04:36:29.508Z,11.13
2018-09-22T04:37:29.488Z,11.11
2018-09-22T04:38:29.471Z,11.11
2018-09-22T04:39:29.447Z,11.15
2018-09-22T04:40:29.425Z,11.12
2018-09-22T04:41:29.406Z,11.08
2018-09-22T04:42:29.383Z,11.13
2018-09-22T04:43:29.358Z,11.11
2018-09-22T04:44:29.342Z,11.15
2018-09-22T04:45:29.317Z,11.15
2018-09-22T04:46:29.299Z,11.15
2018-09-22T04:47:29.279Z,11.09
2018-09-22T04:48:29.252Z,11.09
2018-09-22T04:49:29.235Z,11.19
2018-09-22T04:50:29.210Z,11.30
2018-09-22T04:51:29.188Z,11.25
2018-09-22T04:52:29.169Z,11.20
2018-09-22T04:53:29.154Z,11.25
2018-09-22T04:54:29.124Z,11.13
2018-09-22T04:55:29.103Z,11.27
2018-09-22T04:56:29.089Z,11.16
2018-09-22T04:57:29.079Z,11.25
2018-09-22T04:58:29.044Z,11.22
2018-09-22T04:59:29.019Z,11.22
2018-09-22T05:00:28.997Z,11.27
2018-09-22T05:01:28.975Z,11.25
2018-09-22T05:02:28.959Z,11.23
2018-09-22T05:03:28.934Z,11.27
2018-09-22T05:04:28.913Z,11.23
2018-09-22T05:05:28.891Z,11.19
2018-09-22T05:06:28.870Z,11.30
2018-09-22T05:07:28.850Z,11.19
2018-09-22T05:08:28.827Z,11.22
2018-09-22T05:09:28.806Z,11.20
2018-09-22T05:10:28.789Z,11.25
2018-09-22T05:11:28.765Z,11.25
2018-09-22T05:12:28.743Z,11.41
2018-09-22T05:13:28.723Z,11.31
2018-09-22T05:14:28.699Z,11.34
2018-09-22T05:15:28.688Z,11.30
2018-09-22T05:16:28.658Z,11.28
2018-09-22T05:17:28.638Z,11.30
2018-09-22T05:18:28.617Z,11.30
2018-09-22T05:19:28.588Z,11.25
2018-09-22T05:20:28.573Z,11.31
2018-09-22T05:21:28.558Z,11.22
2018-09-22T05:22:28.530Z,11.31
2018-09-22T05:23:28.509Z,11.33
2018-09-22T05:24:28.485Z,11.27
2018-09-22T05:25:28.469Z,11.31
2018-09-22T05:26:28.448Z,11.34
2018-09-22T05:27:28.428Z,11.30
2018-09-22T05:28:28.402Z,11.36
2018-09-22T05:29:28.386Z,11.34
2018-09-22T05:30:28.361Z,11.30
2018-09-22T05:31:28.342Z,11.37
2018-09-22T05:32:28.319Z,11.30
2018-09-22T05:33:28.335Z,11.33
2018-09-22T05:34:28.280Z,11.37
2018-09-22T05:35:28.262Z,11.33
2018-09-22T05:36:28.239Z,11.31
2018-09-22T05:37:28.214Z,11.23
2018-09-22T05:38:28.192Z,11.33
2018-09-22T05:39:28.170Z,11.38
2018-09-22T05:40:28.152Z,11.30
2018-09-22T05:41:28.127Z,11.30
2018-09-22T05:42:28.110Z,11.27
2018-09-22T05:43:28.085Z,11.30
2018-09-22T05:44:28.063Z,11.28
2018-09-22T05:45:28.045Z,11.30
2018-09-22T05:46:28.021Z,11.31
2018-09-22T05:47:28.001Z,11.37
2018-09-22T05:48:27.987Z,11.31
2018-09-22T05:49:27.960Z,11.37
2018-09-22T05:50:27.937Z,11.34
2018-09-22T05:51:27.915Z,11.38
2018-09-22T05:52:27.897Z,11.34
2018-09-22T05:53:27.872Z,11.36
2018-09-22T05:54:27.856Z,11.45
2018-09-22T05:55:27.839Z,11.34
2018-09-22T05:56:27.811Z,11.36
2018-09-22T05:57:27.786Z,11.37
2018-09-22T05:58:27.784Z,11.41
2018-09-22T05:59:27.747Z,11.38
2018-09-22T06:00:27.726Z,11.37
2018-09-22T06:01:27.704Z,11.37
2018-09-22T06:02:27.682Z,11.36
2018-09-22T06:03:27.678Z,11.36
2018-09-22T06:04:27.640Z,11.41
2018-09-22T06:05:27.618Z,11.41
2018-09-22T06:06:27.643Z,11.38
2018-09-22T06:07:27.579Z,11.36
2018-09-22T06:08:27.555Z,11.40
2018-09-22T06:09:27.560Z,11.52
2018-09-22T06:10:27.517Z,11.43
2018-09-22T06:11:27.493Z,11.48
2018-09-22T06:12:27.469Z,11.52
2018-09-22T06:13:27.444Z,11.38
2018-09-22T06:14:27.429Z,11.45
2018-09-22T06:15:27.410Z,11.55
2018-09-22T06:16:27.390Z,11.56
2018-09-22T06:17:27.363Z,11.59
2018-09-22T06:18:27.345Z,11.64
2018-09-22T06:19:27.326Z,11.54
2018-09-22T06:20:27.306Z,11.64
2018-09-22T06:21:27.283Z,11.67
2018-09-22T06:22:27.265Z,11.66
2018-09-22T06:23:27.304Z,11.74
2018-09-22T06:24:27.217Z,11.85
2018-09-22T06:25:27.196Z,11.84
2018-09-22T06:26:27.181Z,11.82
2018-09-22T06:27:27.160Z,11.88
2018-09-22T06:28:27.134Z,11.87
2018-09-22T06:29:27.113Z,11.87
2018-09-22T06:30:27.092Z,11.89
2018-09-22T06:31:27.071Z,11.88
2018-09-22T06:32:27.057Z,11.87
2018-09-22T06:33:27.030Z,11.88
2018-09-22T06:34:27.009Z,11.91
2018-09-22T06:35:26.990Z,11.91
2018-09-22T06:36:26.969Z,11.91
2018-09-22T06:37:26.959Z,11.89
2018-09-22T06:38:26.924Z,11.93
2018-09-22T06:39:26.906Z,12.04
2018-09-22T06:40:26.883Z,12.05
2018-09-22T06:41:26.867Z,12.03
2018-09-22T06:42:26.842Z,12.04
2018-09-22T06:43:26.822Z,12.13
2018-09-22T06:44:26.800Z,12.07
2018-09-22T06:45:26.786Z,11.99
2018-09-22T06:46:26.762Z,12.04
2018-09-22T06:47:26.739Z,12.04
2018-09-22T06:48:26.718Z,12.07
2018-09-22T06:49:26.696Z,12.18
2018-09-22T06:50:26.676Z,12.28
2018-09-22T06:51:26.659Z,12.29
2018-09-22T06:52:26.633Z,12.26
2018-09-22T06:53:26.614Z,12.38
2018-09-22T06:54:26.595Z,12.35
2018-09-22T06:55:26.579Z,12.41
2018-09-22T06:56:26.551Z,12.48
2018-09-22T06:57:26.531Z,12.47
2018-09-22T06:58:26.514Z,12.53
2018-09-22T06:59:26.494Z,12.48
2018-09-22T07:00:26.474Z,12.50
2018-09-22T07:01:26.451Z,12.53
2018-09-22T07:02:26.431Z,12.47
2018-09-22T07:03:26.413Z,12.41
2018-09-22T07:04:26.429Z,12.38
2018-09-22T07:05:26.370Z,12.41
2018-09-22T07:06:26.409Z,12.40
2018-09-22T07:07:26.333Z,12.48
2018-09-22T07:08:26.309Z,12.50
2018-09-22T07:09:26.289Z,12.59
2018-09-22T07:10:26.270Z,12.63
2018-09-22T07:11:26.250Z,12.77
2018-09-22T07:12:26.228Z,12.83
2018-09-22T07:13:26.208Z,12.91
2018-09-22T07:14:26.191Z,12.91
2018-09-22T07:15:26.171Z,12.90
2018-09-22T07:16:26.154Z,13.01
2018-09-22T07:17:26.128Z,13.02
2018-09-22T07:18:26.116Z,13.05
2018-09-22T07:19:26.126Z,13.11
2018-09-22T07:20:26.081Z,13.05
2018-09-22T07:21:26.051Z,13.13
2018-09-22T07:22:26.032Z,13.06
2018-09-22T07:23:26.013Z,12.98
2018-09-22T07:24:25.991Z,13.14
2018-09-22T07:25:26.003Z,13.13
2018-09-22T07:26:25.951Z,13.19
2018-09-22T07:27:25.932Z,13.23
2018-09-22T07:28:25.913Z,13.19
2018-09-22T07:29:25.892Z,13.17
2018-09-22T07:30:25.876Z,13.17
2018-09-22T07:31:25.853Z,13.17
2018-09-22T07:32:25.833Z,13.14
2018-09-22T07:33:25.814Z,13.13
2018-09-22T07:34:25.795Z,13.14
2018-09-22T07:35:25.774Z,13.19
2018-09-22T07:36:25.757Z,13.24
2018-09-22T07:37:25.733Z,13.14
2018-09-22T07:38:25.713Z,13.21
2018-09-22T07:39:25.776Z,13.16
2018-09-22T07:40:25.678Z,13.24
2018-09-22T07:41:25.658Z,13.38
2018-09-22T07:42:25.635Z,13.29
2018-09-22T07:43:25.614Z,13.32
2018-09-22T07:44:25.599Z,13.36
2018-09-22T07:45:25.578Z,13.49
2018-09-22T07:46:25.554Z,13.49
2018-09-22T07:47:25.641Z,13.47
2018-09-22T07:48:25.517Z,13.57
2018-09-22T07:49:25.494Z,13.47
2018-09-22T07:50:25.479Z,13.58
2018-09-22T07:51:25.461Z,13.61
2018-09-22T07:52:25.438Z,13.64
2018-09-22T07:53:25.417Z,13.64
2018-09-22T07:54:25.395Z,13.75
2018-09-22T07:55:25.375Z,13.76
2018-09-22T07:56:25.356Z,13.68
2018-09-22T07:57:25.337Z,13.79
2018-09-22T07:58:25.317Z,13.72
2018-09-22T07:59:25.300Z,13.72
2018-09-22T08:00:25.352Z,13.83
2018-09-22T08:01:25.260Z,13.88
2018-09-22T08:02:25.237Z,13.90
2018-09-22T08:03:25.223Z,14.09
2018-09-22T08:04:25.201Z,13.98
2018-09-22T08:05:25.184Z,14.08
2018-09-22T08:06:25.161Z,13.97
2018-09-22T08:07:25.140Z,14.12
2018-09-22T08:08:25.127Z,13.98
2018-09-22T08:09:25.100Z,14.00
2018-09-22T08:10:25.080Z,14.03
2018-09-22T08:11:25.061Z,14.01
2018-09-22T08:12:25.041Z,14.01
2018-09-22T08:13:25.025Z,14.04
2018-09-22T08:14:25.007Z,14.05
2018-09-22T08:15:24.983Z,14.09
2018-09-22T08:16:24.965Z,14.09
2018-09-22T08:17:24.949Z,14.12
2018-09-22T08:18:24.924Z,14.13
2018-09-22T08:19:24.909Z,14.09
2018-09-22T08:20:24.886Z,14.04
2018-09-22T08:21:24.866Z,14.12
2018-09-22T08:22:24.849Z,14.09
2018-09-22T08:23:24.827Z,14.11
2018-09-22T08:24:24.807Z,14.26
2018-09-22T08:25:24.787Z,14.22
2018-09-22T08:26:24.769Z,14.37
2018-09-22T08:27:24.747Z,14.52
2018-09-22T08:28:24.729Z,14.55
2018-09-22T08:29:24.709Z,14.53
2018-09-22T08:30:24.690Z,14.56
2018-09-22T08:31:24.677Z,14.66
2018-09-22T08:32:24.655Z,14.78
2018-09-22T08:33:24.634Z,14.67
2018-09-22T08:34:24.614Z,14.74
2018-09-22T08:35:24.600Z,14.90
2018-09-22T08:36:24.737Z,14.92
2018-09-22T08:37:24.604Z,14.97
2018-09-22T08:38:24.535Z,15.08
2018-09-22T08:39:24.524Z,15.11
2018-09-22T08:40:24.500Z,15.17
2018-09-22T08:41:24.477Z,15.05
2018-09-22T08:42:24.463Z,14.97
2018-09-22T08:43:24.449Z,15.04
2018-09-22T08:44:24.421Z,14.97
2018-09-22T08:45:24.438Z,15.05
2018-09-22T08:46:24.389Z,15.07
2018-09-22T08:47:24.482Z,15.07
2018-09-22T08:48:24.432Z,15.03
2018-09-22T08:49:24.342Z,15.03
2018-09-22T08:50:24.319Z,15.15
2018-09-22T08:51:24.287Z,15.07
2018-09-22T08:52:24.270Z,15.10
2018-09-22T08:53:24.254Z,15.12
2018-09-22T08:54:24.236Z,15.17
2018-09-22T08:55:24.217Z,15.20
2018-09-22T08:56:24.197Z,15.25
2018-09-22T08:57:24.177Z,15.25
2018-09-22T08:58:24.159Z,15.12
2018-09-22T08:59:24.142Z,15.23
2018-09-22T09:00:24.171Z,15.27
2018-09-22T09:01:24.101Z,15.14
2018-09-22T09:02:24.082Z,15.17
2018-09-22T09:03:24.061Z,15.14
2018-09-22T09:04:24.043Z,15.11
2018-09-22T09:05:24.023Z,15.11
2018-09-22T09:06:24.007Z,15.14
2018-09-22T09:07:23.991Z,15.11
2018-09-22T09:08:23.967Z,15.19
2018-09-22T09:09:23.949Z,15.17
2018-09-22T09:10:23.930Z,15.23
2018-09-22T09:11:23.966Z,15.22
2018-09-22T09:12:23.893Z,15.35
2018-09-22T09:13:23.899Z,15.30
2018-09-22T09:14:23.908Z,15.36
2018-09-22T09:15:24.011Z,15.41
2018-09-22T09:16:23.828Z,15.48
2018-09-22T09:17:23.797Z,15.54
2018-09-22T09:18:24.024Z,15.56
2018-09-22T09:19:23.759Z,15.68
2018-09-22T09:20:23.740Z,15.76
2018-09-22T09:21:23.726Z,15.85
2018-09-22T09:22:23.705Z,15.87
2018-09-22T09:23:23.690Z,15.95
2018-09-22T09:24:23.665Z,16.06
2018-09-22T09:25:23.651Z,15.99
2018-09-22T09:26:23.628Z,16.13
2018-09-22T09:27:23.642Z,16.18
2018-09-22T09:28:23.590Z,16.29
2018-09-22T09:29:23.706Z,16.29
2018-09-22T09:30:23.551Z,16.37
2018-09-22T09:31:24.928Z,16.37
2018-09-22T09:32:23.513Z,16.36
2018-09-22T09:33:23.886Z,16.28
2018-09-22T09:34:23.471Z,16.37
2018-09-22T09:35:23.460Z,16.37
2018-09-22T09:36:23.444Z,16.33
2018-09-22T09:37:23.421Z,16.40
2018-09-22T09:38:23.408Z,16.39
2018-09-22T09:39:23.386Z,16.39
2018-09-22T09:40:23.366Z,16.39
2018-09-22T09:41:23.348Z,16.34
2018-09-22T09:42:23.329Z,16.43
2018-09-22T09:43:23.337Z,16.43
2018-09-22T09:44:23.286Z,16.54
2018-09-22T09:45:23.278Z,16.69
2018-09-22T09:46:23.259Z,16.73
2018-09-22T09:47:23.242Z,16.79
2018-09-22T09:48:23.218Z,16.87
2018-09-22T09:49:23.226Z,16.77
2018-09-22T09:50:23.210Z,16.69
2018-09-22T09:51:23.166Z,16.74
2018-09-22T09:52:23.143Z,16.76
2018-09-22T09:53:23.137Z,16.73
2018-09-22T09:54:23.145Z,16.64
2018-09-22T09:55:23.141Z,16.55
2018-09-22T09:56:23.078Z,16.58
2018-09-22T09:57:23.059Z,16.62
2018-09-22T09:58:23.047Z,16.57
2018-09-22T09:59:23.021Z,16.51
2018-09-22T10:00:23.003Z,16.59
2018-09-22T10:01:22.985Z,16.59
2018-09-22T10:02:22.963Z,16.51
2018-09-22T10:03:22.950Z,16.64
2018-09-22T10:04:22.948Z,16.64
2018-09-22T10:05:22.913Z,16.65
2018-09-22T10:06:22.898Z,16.69
2018-09-22T10:07:22.879Z,16.62
2018-09-22T10:08:22.862Z,16.67
2018-09-22T10:09:22.839Z,16.64
2018-09-22T10:10:22.822Z,16.69
2018-09-22T10:11:22.812Z,16.69
2018-09-22T10:12:22.788Z,16.76
2018-09-22T10:13:22.769Z,16.74
2018-09-22T10:14:22.769Z,16.74
2018-09-22T10:15:22.729Z,16.77
2018-09-22T10:16:22.713Z,16.83
2018-09-22T10:17:22.701Z,16.83
2018-09-22T10:18:22.676Z,16.80
2018-09-22T10:19:22.660Z,16.90
2018-09-22T10:20:22.642Z,16.94
2018-09-22T10:21:22.625Z,17.13
2018-09-22T10:22:22.607Z,17.12
2018-09-22T10:23:22.588Z,17.30
2018-09-22T10:24:22.582Z,17.38
2018-09-22T10:25:22.545Z,17.34
2018-09-22T10:26:22.543Z,17.30
2018-09-22T10:27:22.518Z,17.46
2018-09-22T10:28:22.553Z,17.46
2018-09-22T10:29:22.475Z,17.54
2018-09-22T10:30:22.457Z,17.35
2018-09-22T10:31:22.441Z,17.39
2018-09-22T10:32:22.429Z,17.31
2018-09-22T10:33:22.405Z,17.22
2018-09-22T10:34:22.385Z,17.20
2018-09-22T10:35:22.385Z,17.28
2018-09-22T10:36:22.344Z,17.27
2018-09-22T10:37:22.340Z,17.20
2018-09-22T10:38:22.321Z,17.37
2018-09-22T10:39:22.308Z,17.43
2018-09-22T10:40:22.283Z,17.57
2018-09-22T10:41:22.262Z,17.65
2018-09-22T10:42:22.335Z,17.57
2018-09-22T10:43:22.232Z,17.50
2018-09-22T10:44:22.211Z,17.63
2018-09-22T10:45:22.189Z,17.71
2018-09-22T10:46:22.173Z,17.79
2018-09-22T10:47:22.151Z,17.76
2018-09-22T10:48:22.157Z,17.88
2018-09-22T10:49:22.120Z,17.94
2018-09-22T10:50:22.112Z,17.96
2018-09-22T10:51:22.084Z,18.05
2018-09-22T10:52:22.063Z,18.09
2018-09-22T10:53:22.046Z,18.06
2018-09-22T10:54:22.026Z,17.96
2018-09-22T10:55:22.020Z,18.05
2018-09-22T10:56:21.997Z,17.90
2018-09-22T10:57:21.990Z,17.91
2018-09-22T10:58:21.992Z,17.99
2018-09-22T10:59:21.958Z,17.99
2018-09-22T11:00:21.932Z,17.96
2018-09-22T11:01:21.924Z,18.09
2018-09-22T11:02:21.915Z,18.03
2018-09-22T11:03:21.923Z,18.06
2018-09-22T11:04:21.877Z,18.06
2018-09-22T11:05:21.853Z,18.12
2018-09-22T11:06:21.823Z,18.15
2018-09-22T11:07:21.803Z,18.11
2018-09-22T11:08:21.801Z,18.06
2018-09-22T11:09:21.780Z,18.06
2018-09-22T11:10:21.760Z,18.05
2018-09-22T11:11:21.791Z,17.90
2018-09-22T11:12:21.718Z,17.90
2018-09-22T11:13:21.702Z,17.93
2018-09-22T11:14:21.677Z,17.91
2018-09-22T11:15:21.666Z,17.76
2018-09-22T11:16:21.645Z,17.63
2018-09-22T11:17:21.625Z,17.68
2018-09-22T11:18:21.615Z,17.83
2018-09-22T11:19:21.590Z,17.81
2018-09-22T11:20:21.583Z,17.81
2018-09-22T11:21:21.570Z,17.83
2018-09-22T11:22:21.561Z,17.88
2018-09-22T11:23:21.533Z,17.83
2018-09-22T11:24:21.516Z,17.71
2018-09-22T11:25:21.488Z,17.69
2018-09-22T11:26:21.483Z,17.53
2018-09-22T11:27:21.471Z,17.41
2018-09-22T11:28:21.436Z,17.31
2018-09-22T11:29:21.431Z,17.25
2018-09-22T11:30:21.407Z,17.09
2018-09-22T11:31:21.393Z,17.19
2018-09-22T11:32:21.377Z,17.19
2018-09-22T11:33:21.352Z,17.10
2018-09-22T11:34:21.359Z,17.17
2018-09-22T11:35:21.320Z,17.28
2018-09-22T11:36:21.341Z,17.37
2018-09-22T11:37:21.302Z,17.27
2018-09-22T11:38:21.322Z,17.38
2018-09-22T11:39:21.251Z,17.37
2018-09-22T11:40:21.229Z,17.45
2018-09-22T11:41:21.214Z,17.65
2018-09-22T11:42:21.219Z,17.65
2018-09-22T11:43:21.185Z,17.76
2018-09-22T11:44:21.165Z,17.91
2018-09-22T11:45:21.148Z,17.94
2018-09-22T11:46:21.201Z,17.96
2018-09-22T11:47:21.119Z,17.97
2018-09-22T11:48:21.105Z,17.90
2018-09-22T11:49:21.121Z,17.73
2018-09-22T11:50:21.087Z,17.69
2018-09-22T11:51:21.047Z,17.69
2018-09-22T11:52:21.030Z,17.69
2018-09-22T11:53:21.022Z,17.65
2018-09-22T11:54:21.001Z,17.76
2018-09-22T11:55:20.985Z,17.81
2018-09-22T11:56:20.970Z,17.68
2018-09-22T11:57:20.945Z,17.56
2018-09-22T11:58:20.934Z,17.63
2018-09-22T11:59:20.927Z,17.47
2018-09-22T12:00:20.901Z,17.41
2018-09-22T12:01:20.929Z,17.39
2018-09-22T12:02:20.921Z,17.43
2018-09-22T12:03:20.855Z,17.41
2018-09-22T12:04:20.830Z,17.46
2018-09-22T12:05:20.815Z,17.43
2018-09-22T12:06:20.895Z,17.50
2018-09-22T12:07:20.807Z,17.47
2018-09-22T12:08:20.780Z,17.50
2018-09-22T12:09:20.751Z,17.53
2018-09-22T12:10:20.726Z,17.59
2018-09-22T12:11:20.725Z,17.57
2018-09-22T12:12:20.730Z,17.49
2018-09-22T12:13:20.680Z,17.56
2018-09-22T12:14:20.681Z,17.65
2018-09-22T12:15:20.650Z,17.76
2018-09-22T12:16:20.628Z,17.71
2018-09-22T12:17:20.620Z,17.72
2018-09-22T12:18:20.599Z,17.52
2018-09-22T12:19:20.591Z,17.72
2018-09-22T12:20:20.565Z,17.72
2018-09-22T12:21:20.645Z,17.81
2018-09-22T12:22:20.543Z,17.68
2018-09-22T12:23:20.536Z,17.71
2018-09-22T12:24:20.499Z,17.59
2018-09-22T12:25:20.496Z,17.46
2018-09-22T12:26:20.475Z,17.47
2018-09-22T12:27:20.472Z,17.45
2018-09-22T12:28:20.437Z,17.41
2018-09-22T12:29:20.416Z,17.41
2018-09-22T12:30:20.415Z,17.41
2018-09-22T12:31:20.377Z,17.39
2018-09-22T12:32:20.365Z,17.37
2018-09-22T12:33:20.350Z,17.39
2018-09-22T12:34:20.340Z,17.43
2018-09-22T12:35:20.312Z,17.43
2018-09-22T12:36:20.308Z,17.38
2018-09-22T12:37:20.273Z,17.34
2018-09-22T12:38:20.258Z,17.28
2018-09-22T12:39:20.237Z,17.27
2018-09-22T12:40:20.245Z,17.38
2018-09-22T12:41:20.209Z,17.35
2018-09-22T12:42:20.200Z,17.32
2018-09-22T12:43:20.170Z,17.37
2018-09-22T12:44:20.162Z,17.37
2018-09-22T12:45:20.168Z,17.31
2018-09-22T12:46:20.138Z,17.25
2018-09-22T12:47:20.124Z,17.17
2018-09-22T12:48:20.088Z,17.07
2018-09-22T12:49:20.115Z,17.12
2018-09-22T12:50:20.074Z,17.19
2018-09-22T12:51:20.043Z,17.12
2018-09-22T12:52:20.016Z,17.09